Horizon Consumer — WCHF — position and weather

sailwx.info

Track history (hours):
 
Tides and Currents Weather Stations Pressure Air Temp Water Temp Dewpoint Dewpoint Depression Visibility Wind Speed Wind Dir Waves Ship Positions

Horizon Consumer

More information available from US FCC via Universal Licensing System and Coast Guard Vessel Documentation Center.

Last reported at 2014-Jun-26 20:33 UTC. Time now 2014-Sep-19 01:50 UTC.
Position N 47°16' W 122°25'.
Warning: this ship's position is months out of date.

Type: Cargo ship. MMSI: 368600000.

Date/timePositionNaut miles runAvg speedWind from/ knotsBaromVisibWave heightAir tempDewpointWater temp
2014-Jun-26 20:33N 47°16' W 122°25'0 0.0
2014-Jun-26 19:33N 47°16' W 122°25'0 0.0
2014-Jun-26 18:33N 47°16' W 122°25'0 0.0
2014-Jun-25 13:34N 47°16' W 122°25'0 0.0
2014-Jun-25 12:33N 47°16' W 122°25'2 1.9
2014-Jun-25 11:34N 47°17' W 122°27'1212.4
2014-Jun-25 10:34N 47°30' W 122°26'1716.9
2014-Jun-25 09:34N 47°47' W 122°27'1919.0
2014-Jun-25 08:32N 48°04' W 122°40'1919.5
2014-Jun-25 07:34N 48°12' W 123°06'1615.6
2014-Jun-25 06:33N 48°12' W 123°30'1817.6
2014-Jun-25 05:33N 48°14' W 123°56'1817.9
2014-Jun-25 04:34N 48°21' W 124°20'1717.1
2014-Jun-25 03:34N 48°28' W 124°43'1514.7
2014-Jun-25 02:33N 48°22' W 125°04'1717.4
2014-Jun-25 01:33N 48°06' W 125°14'24017.7
2014-Jun-24 12:00N 44°06' W 125°18'12020.1 190 / 91020.0 2.2 16.712.615.6
2014-Jun-24 06:00N 42°06' W 125°06'10217.1 270 / 121021.010.8 0.515.013.012.8
2014-Jun-24 00:00N 40°24' W 124°54'9417.1 340 / 191019.827.0 2.014.410.212.8
2014-Jun-23 18:30N 38°56' W 124°13'918.7
2014-Jun-23 18:00N 38°48' W 124°06'917.1 310 / 351016.1 5.4
2014-Jun-23 17:27N 38°41' W 123°58'1617.9
2014-Jun-23 16:33N 38°30' W 123°44'1716.7
2014-Jun-23 15:33N 38°17' W 123°29'1817.6
2014-Jun-23 14:33N 38°04' W 123°15'3416.8
2014-Jun-23 12:33N 37°46' W 122°39'1313.4
2014-Jun-23 11:34N 37°48' W 122°22'2 2.5
2014-Jun-23 10:33N 37°49' W 122°19'0 0.0
2014-Jun-23 09:33N 37°49' W 122°19'0 0.0
2014-Jun-23 08:33N 37°49' W 122°19'0 0.0
2014-Jun-23 07:33N 37°49' W 122°19'0 0.0
2014-Jun-23 06:33N 37°49' W 122°19'0 0.0
2014-Jun-23 05:33N 37°49' W 122°19'0 0.0
2014-Jun-23 04:33N 37°49' W 122°19'0 0.0
2014-Jun-23 03:33N 37°49' W 122°19'0 0.0
2014-Jun-23 02:33N 37°49' W 122°19'0 0.0
2014-Jun-23 01:33N 37°49' W 122°19'0 0.0
2014-Jun-23 00:33N 37°49' W 122°19'1 0.9
2014-Jun-22 23:33N 37°49' W 122°20'1313.0
2014-Jun-22 22:34N 37°46' W 122°36'1312.9
2014-Jun-22 21:33N 37°39' W 122°50'1615.5
2014-Jun-22 20:33N 37°32' W 123°07'3514.7
2014-Jun-22 18:10N 37°18' W 123°47'914.0
2014-Jun-22 17:30N 37°14' W 123°58'1313.4
2014-Jun-22 16:33N 37°09' W 124°13'1413.9
2014-Jun-22 15:33N 37°03' W 124°29'1714.6
2014-Jun-22 14:25N 36°57' W 124°48'4515.7
2014-Jun-22 11:31N 36°39' W 125°40'1515.6
2014-Jun-22 10:33N 36°33' W 125°58'4815.8
2014-Jun-22 07:29N 36°15' W 126°53'11915.9
2014-Jun-22 00:00N 35°24' W 129°06'10717.8 360 / 201022.527.0 1.018.311.217.8
2014-Jun-21 18:00N 34°42' W 131°06'29516.4 360 / 151023.310.8 1.516.711.618.3
2014-Jun-21 00:00N 32°42' W 136°30'   020 / 71025.027.0 0.518.912.920.0
2014-Jun-18 00:00N 21°48' W 156°36'   050 / 141016.627.0 1.526.719.822.2
Track history (hours):
 
Tides and Currents Weather Stations Pressure Air Temp Water Temp Dewpoint Dewpoint Depression Visibility Wind Speed Wind Dir Waves Ship Positions

Horizon Consumer

More information available from US FCC via Universal Licensing System and Coast Guard Vessel Documentation Center.

Last reported at 2014-Jun-26 20:33 UTC. Time now 2014-Sep-19 01:50 UTC.
Position N 47°16' W 122°25'.
Warning: this ship's position is months out of date.

Type: Cargo ship. MMSI: 368600000.

Date/timePositionNaut miles runAvg speedWind from/ knotsBaromVisibWave heightAir tempDewpointWater temp
2014-Jun-26 20:33N 47°16' W 122°25'0 0.0
2014-Jun-26 19:33N 47°16' W 122°25'0 0.0
2014-Jun-26 18:33N 47°16' W 122°25'0 0.0
2014-Jun-25 13:34N 47°16' W 122°25'0 0.0
2014-Jun-25 12:33N 47°16' W 122°25'2 1.9
2014-Jun-25 11:34N 47°17' W 122°27'1212.4
2014-Jun-25 10:34N 47°30' W 122°26'1716.9
2014-Jun-25 09:34N 47°47' W 122°27'1919.0
2014-Jun-25 08:32N 48°04' W 122°40'1919.5
2014-Jun-25 07:34N 48°12' W 123°06'1615.6
2014-Jun-25 06:33N 48°12' W 123°30'1817.6
2014-Jun-25 05:33N 48°14' W 123°56'1817.9
2014-Jun-25 04:34N 48°21' W 124°20'1717.1
2014-Jun-25 03:34N 48°28' W 124°43'1514.7
2014-Jun-25 02:33N 48°22' W 125°04'1717.4
2014-Jun-25 01:33N 48°06' W 125°14'24017.7
2014-Jun-24 12:00N 44°06' W 125°18'12020.1 190 / 91020.0 2.2 16.712.615.6
2014-Jun-24 06:00N 42°06' W 125°06'10217.1 270 / 121021.010.8 0.515.013.012.8
2014-Jun-24 00:00N 40°24' W 124°54'9417.1 340 / 191019.827.0 2.014.410.212.8
2014-Jun-23 18:30N 38°56' W 124°13'918.7
2014-Jun-23 18:00N 38°48' W 124°06'917.1 310 / 351016.1 5.4
2014-Jun-23 17:27N 38°41' W 123°58'1617.9
2014-Jun-23 16:33N 38°30' W 123°44'1716.7
2014-Jun-23 15:33N 38°17' W 123°29'1817.6
2014-Jun-23 14:33N 38°04' W 123°15'3416.8
2014-Jun-23 12:33N 37°46' W 122°39'1313.4
2014-Jun-23 11:34N 37°48' W 122°22'2 2.5
2014-Jun-23 10:33N 37°49' W 122°19'0 0.0
2014-Jun-23 09:33N 37°49' W 122°19'0 0.0
2014-Jun-23 08:33N 37°49' W 122°19'0 0.0
2014-Jun-23 07:33N 37°49' W 122°19'0 0.0
2014-Jun-23 06:33N 37°49' W 122°19'0 0.0
2014-Jun-23 05:33N 37°49' W 122°19'0 0.0
2014-Jun-23 04:33N 37°49' W 122°19'0 0.0
2014-Jun-23 03:33N 37°49' W 122°19'0 0.0
2014-Jun-23 02:33N 37°49' W 122°19'0 0.0
2014-Jun-23 01:33N 37°49' W 122°19'0 0.0
2014-Jun-23 00:33N 37°49' W 122°19'1 0.9
2014-Jun-22 23:33N 37°49' W 122°20'1313.0
2014-Jun-22 22:34N 37°46' W 122°36'1312.9
2014-Jun-22 21:33N 37°39' W 122°50'1615.5
2014-Jun-22 20:33N 37°32' W 123°07'3514.7
2014-Jun-22 18:10N 37°18' W 123°47'914.0
2014-Jun-22 17:30N 37°14' W 123°58'1313.4
2014-Jun-22 16:33N 37°09' W 124°13'1413.9
2014-Jun-22 15:33N 37°03' W 124°29'1714.6
2014-Jun-22 14:25N 36°57' W 124°48'4515.7
2014-Jun-22 11:31N 36°39' W 125°40'1515.6
2014-Jun-22 10:33N 36°33' W 125°58'4815.8
2014-Jun-22 07:29N 36°15' W 126°53'11915.9
2014-Jun-22 00:00N 35°24' W 129°06'10717.8 360 / 201022.527.0 1.018.311.217.8
2014-Jun-21 18:00N 34°42' W 131°06'29516.4 360 / 151023.310.8 1.516.711.618.3
2014-Jun-21 00:00N 32°42' W 136°30'   020 / 71025.027.0 0.518.912.920.0
2014-Jun-18 00:00N 21°48' W 156°36'   050 / 141016.627.0 1.526.719.822.2

Dump ship's entire track history